Time;durP1;ratioP1;P1;durP2;ratioP2;P2;SDS_P1;SDS_P2;PMS_P1;PMS_P2;Temp;Humidity;BMP_temperature;BMP_pressure;BME280_temperature;BME280_humidity;BME280_pressure;Samples;Min_cycle;Max_cycle;Signal;HPM_P1;HPM_P2
2022/01/10 00:02:24;;;;;;;12.95;8.55;;;;;;;;;;5033609;28;20029;-64
2022/01/10 00:04:51;;;;;;;11.55;7.72;;;;;;;;;;5033257;28;20438;-64
2022/01/10 00:07:17;;;;;;;13.18;7.82;;;;;;;;;;5033242;28;20038;-64
2022/01/10 00:09:43;;;;;;;10.38;7.45;;;;;;;;;;5031537;28;20037;-64
2022/01/10 00:12:09;;;;;;;14.70;8.40;;;;;;;;;;5032837;28;20067;-64
2022/01/10 00:14:35;;;;;;;14.50;8.75;;;;;;;;;;5033235;28;20025;-64
2022/01/10 00:17:02;;;;;;;14.35;9.93;;;;;;;;;;5033062;28;20029;-64
2022/01/10 00:19:28;;;;;;;13.73;8.55;;;;;;;;;;5032158;28;20021;-64
2022/01/10 00:21:54;;;;;;;13.80;8.45;;;;;;;;;;5033014;28;20036;-64
2022/01/10 00:24:20;;;;;;;12.40;8.52;;;;;;;;;;5032985;28;20503;-64
2022/01/10 00:26:46;;;;;;;14.05;8.30;;;;;;;;;;5032662;28;20033;-64
2022/01/10 00:29:12;;;;;;;14.82;8.50;;;;;;;;;;5032525;28;20029;-64
2022/01/10 00:31:38;;;;;;;12.23;8.02;;;;;;;;;;5033049;28;20052;-64
2022/01/10 00:34:04;;;;;;;15.25;9.02;;;;;;;;;;5031291;28;20030;-64
2022/01/10 00:36:30;;;;;;;15.63;9.18;;;;;;;;;;5032978;28;20495;-64
2022/01/10 00:38:56;;;;;;;16.38;8.35;;;;;;;;;;5032579;28;20471;-65
2022/01/10 00:41:22;;;;;;;14.95;8.82;;;;;;;;;;5033280;28;20698;-64
2022/01/10 00:43:50;;;;;;;18.13;8.18;;;;;;;;;;5033211;28;20072;-63
2022/01/10 00:46:17;;;;;;;10.98;6.70;;;;;;;;;;5033004;28;20380;-64
2022/01/10 00:48:43;;;;;;;10.50;5.60;;;;;;;;;;5032423;28;20032;-64
2022/01/10 00:51:09;;;;;;;9.10;5.30;;;;;;;;;;5033355;28;20026;-64
2022/01/10 00:53:35;;;;;;;7.45;5.93;;;;;;;;;;5034151;28;20028;-64
2022/01/10 00:56:01;;;;;;;10.27;7.30;;;;;;;;;;5034047;28;20041;-64
2022/01/10 00:58:27;;;;;;;14.88;8.00;;;;;;;;;;5034056;28;20036;-63
2022/01/10 01:00:53;;;;;;;12.30;7.47;;;;;;;;;;5034858;28;20037;-64
2022/01/10 01:03:19;;;;;;;11.32;6.45;;;;;;;;;;5035442;28;20030;-65
2022/01/10 01:05:45;;;;;;;9.70;6.13;;;;;;;;;;5035293;28;20468;-65
2022/01/10 01:08:13;;;;;;;7.55;5.32;;;;;;;;;;5033257;28;20029;-64
2022/01/10 01:13:52;;;;;;;11.38;5.45;;;;;;;;;;5032325;28;20119;-64
2022/01/10 01:24:06;;;;;;;10.80;5.95;;;;;;;;;;5031848;28;20120;-64
2022/01/10 01:26:37;;;;;;;10.80;6.60;;;;;;;;;;5032459;28;20037;-65
2022/01/10 01:29:04;;;;;;;8.85;5.70;;;;;;;;;;5031729;28;20029;-65
2022/01/10 01:31:30;;;;;;;8.18;5.25;;;;;;;;;;5032749;28;20029;-64
2022/01/10 01:33:56;;;;;;;8.13;5.57;;;;;;;;;;5031974;28;20025;-64
2022/01/10 01:36:24;;;;;;;11.55;6.35;;;;;;;;;;5032548;28;20060;-64
2022/01/10 01:38:53;;;;;;;9.88;6.15;;;;;;;;;;5030624;28;20025;-63
2022/01/10 01:43:58;;;;;;;11.55;6.57;;;;;;;;;;5035923;28;20364;-66
2022/01/10 01:46:24;;;;;;;12.85;7.07;;;;;;;;;;5038490;28;20029;-65
2022/01/10 01:48:50;;;;;;;10.13;7.28;;;;;;;;;;5035337;28;20026;-64
2022/01/10 01:51:17;;;;;;;11.40;8.00;;;;;;;;;;5033869;28;20021;-64
2022/01/10 01:53:44;;;;;;;13.82;7.78;;;;;;;;;;5032442;28;20030;-64
2022/01/10 01:56:10;;;;;;;13.15;7.50;;;;;;;;;;5030529;28;20041;-64
2022/01/10 01:58:37;;;;;;;9.30;6.25;;;;;;;;;;5030764;28;20127;-64
2022/01/10 02:01:04;;;;;;;9.52;6.45;;;;;;;;;;5031735;28;20113;-63
2022/01/10 02:03:33;;;;;;;11.45;7.63;;;;;;;;;;5031554;28;20156;-65
2022/01/10 02:05:59;;;;;;;11.73;6.97;;;;;;;;;;5031848;28;20159;-63
2022/01/10 02:08:25;;;;;;;13.10;7.30;;;;;;;;;;5030788;28;20017;-63
2022/01/10 02:10:51;;;;;;;8.40;6.70;;;;;;;;;;5031411;28;20026;-64
2022/01/10 02:13:17;;;;;;;14.13;7.80;;;;;;;;;;5031881;28;20028;-62
2022/01/10 02:15:49;;;;;;;10.20;6.88;;;;;;;;;;5030270;28;20039;-64
2022/01/10 02:18:15;;;;;;;11.10;6.50;;;;;;;;;;5031034;28;20041;-64
2022/01/10 02:20:41;;;;;;;12.88;7.07;;;;;;;;;;5031315;28;20038;-64
2022/01/10 02:23:08;;;;;;;10.88;7.18;;;;;;;;;;5030277;28;20040;-64
2022/01/10 02:25:34;;;;;;;11.55;7.82;;;;;;;;;;5031290;28;20037;-64
2022/01/10 02:28:00;;;;;;;11.13;7.20;;;;;;;;;;5031625;28;20091;-63
2022/01/10 02:30:26;;;;;;;12.75;7.68;;;;;;;;;;5031218;28;20025;-64
2022/01/10 02:32:56;;;;;;;10.20;7.53;;;;;;;;;;5032093;28;20029;-63
2022/01/10 02:35:27;;;;;;;18.70;8.25;;;;;;;;;;5035539;28;20021;-64
2022/01/10 02:37:55;;;;;;;13.15;8.48;;;;;;;;;;5035196;28;20104;-63
2022/01/10 02:40:23;;;;;;;11.70;8.68;;;;;;;;;;5034570;28;20032;-63
2022/01/10 02:42:49;;;;;;;10.43;8.00;;;;;;;;;;5035291;28;20060;-64
2022/01/10 02:45:16;;;;;;;13.45;7.70;;;;;;;;;;5034941;28;20025;-64
2022/01/10 02:47:42;;;;;;;12.38;7.72;;;;;;;;;;5034696;28;20104;-64
2022/01/10 02:50:08;;;;;;;10.18;7.20;;;;;;;;;;5033420;28;20017;-63
2022/01/10 02:52:35;;;;;;;11.70;6.72;;;;;;;;;;5034818;28;20181;-64
2022/01/10 02:55:01;;;;;;;11.95;7.90;;;;;;;;;;5034742;28;20021;-64
2022/01/10 02:57:31;;;;;;;13.02;7.63;;;;;;;;;;5034676;28;20026;-63
2022/01/10 02:59:57;;;;;;;12.48;9.00;;;;;;;;;;5033843;28;20030;-64
2022/01/10 03:02:28;;;;;;;18.55;10.27;;;;;;;;;;5037833;28;20060;-63
2022/01/10 03:04:54;;;;;;;14.80;8.18;;;;;;;;;;5034841;28;20029;-64
2022/01/10 03:07:24;;;;;;;11.98;8.63;;;;;;;;;;5034942;28;20108;-64
2022/01/10 03:09:50;;;;;;;10.82;7.72;;;;;;;;;;5033399;28;20435;-64
2022/01/10 03:12:16;;;;;;;11.38;7.35;;;;;;;;;;5037291;28;20025;-66
2022/01/10 03:16:54;;;;;;;12.15;7.00;;;;;;;;;;5070978;28;20387;-64
2022/01/10 03:19:20;;;;;;;11.82;8.52;;;;;;;;;;5071249;28;20464;-63
2022/01/10 03:21:46;;;;;;;14.75;8.07;;;;;;;;;;5075842;28;20040;-63
2022/01/10 03:24:12;;;;;;;15.70;9.05;;;;;;;;;;5078943;28;20037;-64
2022/01/10 03:26:38;;;;;;;13.98;9.98;;;;;;;;;;5077899;28;20085;-63
2022/01/10 03:29:04;;;;;;;16.40;8.18;;;;;;;;;;5073220;28;20017;-64
2022/01/10 03:31:30;;;;;;;17.63;8.52;;;;;;;;;;5073578;28;20025;-63
2022/01/10 03:33:56;;;;;;;13.50;9.18;;;;;;;;;;5076364;28;20051;-65
2022/01/10 03:36:22;;;;;;;15.88;8.57;;;;;;;;;;5075502;28;20467;-63
2022/01/10 03:38:48;;;;;;;11.40;8.10;;;;;;;;;;5068497;28;20020;-64
2022/01/10 03:41:14;;;;;;;13.07;7.90;;;;;;;;;;5069066;28;20104;-63
2022/01/10 03:45:55;;;;;;;10.88;7.63;;;;;;;;;;5089964;28;20415;-63
2022/01/10 03:48:21;;;;;;;11.60;8.07;;;;;;;;;;5088844;28;20036;-64
2022/01/10 03:50:47;;;;;;;11.18;7.70;;;;;;;;;;5089347;28;20375;-65
2022/01/10 03:53:13;;;;;;;16.10;8.43;;;;;;;;;;5089122;28;20020;-63
2022/01/10 03:55:39;;;;;;;13.65;8.13;;;;;;;;;;5073815;28;20037;-64
2022/01/10 04:00:34;;;;;;;12.50;8.38;;;;;;;;;;5109410;27;20384;-63
2022/01/10 04:03:05;;;;;;;14.45;10.20;;;;;;;;;;5109630;28;20043;-64
2022/01/10 04:05:31;;;;;;;16.45;11.23;;;;;;;;;;5109575;28;20032;-64
2022/01/10 04:07:57;;;;;;;16.10;11.48;;;;;;;;;;5109672;28;20405;-64
2022/01/10 04:10:23;;;;;;;17.92;11.10;;;;;;;;;;5109113;28;20039;-63
2022/01/10 04:12:49;;;;;;;20.02;12.13;;;;;;;;;;5109744;28;20054;-63
2022/01/10 04:15:15;;;;;;;17.02;11.05;;;;;;;;;;5109385;28;20444;-64
2022/01/10 04:17:41;;;;;;;17.42;11.90;;;;;;;;;;5109723;28;20084;-64
2022/01/10 04:20:07;;;;;;;23.52;12.88;;;;;;;;;;5118546;28;20028;-64
2022/01/10 04:22:33;;;;;;;19.15;11.60;;;;;;;;;;5116068;28;20390;-64
2022/01/10 04:25:00;;;;;;;18.38;11.57;;;;;;;;;;5117131;28;20390;-64
2022/01/10 04:27:26;;;;;;;20.08;11.38;;;;;;;;;;5109664;28;20022;-63
2022/01/10 04:29:53;;;;;;;17.42;11.13;;;;;;;;;;5104122;28;20031;-64
2022/01/10 04:32:18;;;;;;;17.20;11.48;;;;;;;;;;5097017;28;20585;-64
2022/01/10 04:34:47;;;;;;;15.68;11.00;;;;;;;;;;5096217;28;20039;-64
2022/01/10 04:37:13;;;;;;;15.70;10.35;;;;;;;;;;5090586;28;20044;-64
2022/01/10 04:39:39;;;;;;;14.75;11.15;;;;;;;;;;5087021;28;20021;-63
2022/01/10 04:42:05;;;;;;;14.63;10.80;;;;;;;;;;5088674;28;20051;-64
2022/01/10 04:44:31;;;;;;;17.90;11.25;;;;;;;;;;5089325;28;20036;-68
2022/01/10 04:46:57;;;;;;;15.85;11.13;;;;;;;;;;5089467;28;20036;-63
2022/01/10 04:49:26;;;;;;;15.35;10.65;;;;;;;;;;5089661;28;20042;-64
2022/01/10 04:51:53;;;;;;;16.52;11.80;;;;;;;;;;5088696;28;20024;-63
2022/01/10 04:54:19;;;;;;;17.85;12.43;;;;;;;;;;5088728;28;20103;-63
2022/01/10 04:56:45;;;;;;;19.17;12.63;;;;;;;;;;5088347;28;20020;-68
2022/01/10 04:59:11;;;;;;;23.85;13.73;;;;;;;;;;5086779;28;20028;-67
2022/01/10 05:02:23;;;;;;;23.63;12.75;;;;;;;;;;5058406;28;20434;-69
2022/01/10 05:04:49;;;;;;;21.35;13.75;;;;;;;;;;5039436;28;20025;-69
2022/01/10 05:07:15;;;;;;;20.92;13.95;;;;;;;;;;5037508;28;20022;-70
2022/01/10 05:09:41;;;;;;;19.88;13.70;;;;;;;;;;5042535;28;20025;-71
2022/01/10 05:12:08;;;;;;;18.17;12.73;;;;;;;;;;5061923;28;20043;-71
